createdAt,value
2022-11-20T00:00:29.456Z,35.60
2022-11-20T00:01:29.399Z,31.10
2022-11-20T00:02:29.438Z,24.60
2022-11-20T00:03:29.395Z,20.70
2022-11-20T00:04:29.383Z,19.50
2022-11-20T00:05:29.356Z,22.90
2022-11-20T00:06:29.355Z,18.00
2022-11-20T00:07:29.384Z,18.60
2022-11-20T00:08:29.383Z,17.40
2022-11-20T00:09:29.355Z,16.00
2022-11-20T00:10:29.325Z,15.50
2022-11-20T00:11:29.316Z,15.30
2022-11-20T00:12:29.292Z,15.30
2022-11-20T00:13:29.284Z,15.40
2022-11-20T00:14:29.305Z,16.00
2022-11-20T00:15:29.278Z,20.20
2022-11-20T00:16:29.281Z,16.10
2022-11-20T00:17:29.243Z,15.80
2022-11-20T00:18:29.231Z,16.00
2022-11-20T00:19:29.214Z,15.90
2022-11-20T00:20:29.212Z,15.80
2022-11-20T00:21:29.250Z,17.10
2022-11-20T00:22:29.194Z,16.70
2022-11-20T00:23:29.174Z,16.70
2022-11-20T00:24:29.168Z,16.60
2022-11-20T00:25:29.152Z,17.00
2022-11-20T00:26:29.225Z,16.90
2022-11-20T00:27:29.151Z,16.60
2022-11-20T00:28:29.138Z,17.00
2022-11-20T00:29:29.110Z,17.20
2022-11-20T00:30:29.113Z,16.70
2022-11-20T00:31:29.102Z,16.70
2022-11-20T00:32:29.081Z,17.10
2022-11-20T00:33:29.110Z,17.10
2022-11-20T00:34:29.060Z,16.90
2022-11-20T00:35:29.042Z,17.20
2022-11-20T00:36:29.112Z,17.90
2022-11-20T00:37:29.060Z,19.10
2022-11-20T00:38:29.019Z,19.20
2022-11-20T00:39:29.041Z,18.70
2022-11-20T00:40:29.000Z,26.40
2022-11-20T00:41:29.019Z,31.40
2022-11-20T00:42:28.979Z,45.20
2022-11-20T00:43:28.959Z,31.50
2022-11-20T00:44:28.969Z,24.90
2022-11-20T00:45:28.947Z,20.20
2022-11-20T00:46:28.970Z,18.90
2022-11-20T00:47:28.929Z,17.40
2022-11-20T00:48:28.921Z,17.90
2022-11-20T00:49:28.909Z,18.30
2022-11-20T00:50:28.888Z,19.60
2022-11-20T00:51:28.922Z,26.90
2022-11-20T00:52:28.876Z,24.00
2022-11-20T00:53:28.857Z,23.60
2022-11-20T00:54:28.857Z,21.10
2022-11-20T00:55:28.839Z,20.20
2022-11-20T00:56:28.867Z,19.40
2022-11-20T00:57:28.846Z,18.20
2022-11-20T00:58:28.816Z,18.50
2022-11-20T00:59:28.795Z,18.00
2022-11-20T01:00:28.817Z,18.80
2022-11-20T01:01:28.823Z,17.60
2022-11-20T01:02:28.876Z,18.10
2022-11-20T01:03:28.779Z,17.60
2022-11-20T01:04:28.766Z,17.90
2022-11-20T01:05:28.734Z,17.50
2022-11-20T01:06:28.725Z,17.60
2022-11-20T01:07:28.758Z,17.80
2022-11-20T01:08:28.752Z,17.00
2022-11-20T01:09:28.694Z,17.10
2022-11-20T01:10:28.677Z,17.30
2022-11-20T01:11:28.741Z,17.20
2022-11-20T01:12:28.685Z,17.20
2022-11-20T01:13:28.683Z,19.10
2022-11-20T01:14:28.643Z,17.40
2022-11-20T01:15:28.634Z,18.00
2022-11-20T01:16:28.672Z,17.90
2022-11-20T01:17:28.619Z,18.10
2022-11-20T01:18:28.600Z,18.00
2022-11-20T01:19:28.600Z,19.10
2022-11-20T01:20:28.619Z,18.50
2022-11-20T01:21:28.572Z,19.10
2022-11-20T01:22:28.551Z,18.40
2022-11-20T01:23:28.595Z,19.30
2022-11-20T01:24:28.532Z,18.50
2022-11-20T01:25:28.531Z,19.10
2022-11-20T01:26:28.532Z,18.70
2022-11-20T01:27:28.520Z,19.50
2022-11-20T01:28:28.494Z,18.50
2022-11-20T01:29:28.530Z,18.80
2022-11-20T01:30:28.470Z,18.60
2022-11-20T01:31:28.461Z,18.20
2022-11-20T01:32:28.450Z,17.60
2022-11-20T01:33:28.446Z,17.40
2022-11-20T01:34:28.469Z,17.00
2022-11-20T01:35:28.419Z,16.60
2022-11-20T01:36:28.410Z,16.60
2022-11-20T01:37:28.462Z,17.00
2022-11-20T01:38:28.391Z,17.70
2022-11-20T01:39:28.378Z,17.20
2022-11-20T01:40:28.398Z,16.70
2022-11-20T01:41:28.366Z,17.10
2022-11-20T01:42:28.349Z,17.40
2022-11-20T01:43:28.368Z,17.00
2022-11-20T01:44:28.327Z,16.60
2022-11-20T01:45:28.323Z,17.10
2022-11-20T01:46:28.328Z,16.40
2022-11-20T01:47:28.308Z,16.80
2022-11-20T01:48:28.322Z,16.70
2022-11-20T01:49:28.277Z,17.20
2022-11-20T01:50:28.299Z,16.60
2022-11-20T01:51:28.260Z,16.00
2022-11-20T01:52:28.266Z,17.20
2022-11-20T01:53:28.243Z,16.50
2022-11-20T01:54:28.248Z,17.00
2022-11-20T01:55:28.214Z,16.50
2022-11-20T01:56:28.236Z,17.10
2022-11-20T01:57:28.206Z,17.20
2022-11-20T01:58:28.225Z,17.10
2022-11-20T01:59:28.177Z,17.30
2022-11-20T02:00:28.157Z,17.20
2022-11-20T02:01:28.209Z,17.50
2022-11-20T02:02:28.154Z,16.80
2022-11-20T02:03:28.158Z,17.50
2022-11-20T02:04:28.156Z,17.30
2022-11-20T02:05:28.116Z,17.80
2022-11-20T02:06:28.113Z,17.30
2022-11-20T02:07:28.138Z,18.10
2022-11-20T02:08:28.135Z,18.00
2022-11-20T02:09:28.082Z,17.50
2022-11-20T02:10:28.065Z,17.80
2022-11-20T02:11:28.073Z,17.50
2022-11-20T02:12:28.063Z,18.40
2022-11-20T02:13:28.023Z,17.60
2022-11-20T02:14:28.014Z,17.90
2022-11-20T02:15:30.439Z,17.40
2022-11-20T02:16:27.993Z,17.50
2022-11-20T02:17:28.003Z,17.30
2022-11-20T02:18:28.002Z,17.20
2022-11-20T02:19:28.034Z,16.80
2022-11-20T02:20:27.952Z,16.80
2022-11-20T02:21:27.942Z,17.50
2022-11-20T02:22:27.951Z,17.30
2022-11-20T02:23:27.930Z,18.10
2022-11-20T02:24:27.908Z,19.30
2022-11-20T02:25:27.933Z,19.20
2022-11-20T02:26:27.888Z,20.30
2022-11-20T02:27:27.891Z,19.00
2022-11-20T02:28:27.871Z,18.10
2022-11-20T02:29:27.862Z,18.10
2022-11-20T02:30:27.881Z,16.90
2022-11-20T02:31:27.847Z,16.70
2022-11-20T02:32:27.886Z,17.20
2022-11-20T02:33:27.820Z,17.80
2022-11-20T02:34:27.801Z,17.50
2022-11-20T02:35:27.829Z,17.40
2022-11-20T02:36:27.789Z,17.10
2022-11-20T02:37:27.790Z,18.20
2022-11-20T02:39:38.450Z,18.00
2022-11-20T02:40:38.467Z,17.90
2022-11-20T02:41:38.416Z,18.00
2022-11-20T02:42:38.405Z,18.90
2022-11-20T02:43:38.398Z,18.50
2022-11-20T02:44:38.407Z,19.00
2022-11-20T02:45:38.377Z,18.80
2022-11-20T02:46:38.393Z,17.80
2022-11-20T02:47:38.386Z,18.00
2022-11-20T02:48:38.357Z,17.30
2022-11-20T02:49:38.338Z,18.10
2022-11-20T02:50:38.356Z,17.80
2022-11-20T02:51:38.315Z,17.30
2022-11-20T02:52:38.304Z,18.10
2022-11-20T02:53:38.467Z,22.70
2022-11-20T02:54:38.286Z,18.20
2022-11-20T02:55:38.275Z,17.00
2022-11-20T02:56:38.257Z,18.10
2022-11-20T02:57:38.256Z,17.90
2022-11-20T02:58:38.235Z,18.70
2022-11-20T02:59:38.292Z,18.30
2022-11-20T03:00:38.223Z,18.30
2022-11-20T03:01:38.260Z,17.60
2022-11-20T03:02:38.361Z,18.80
2022-11-20T03:03:38.193Z,18.10
2022-11-20T03:04:38.174Z,19.80
2022-11-20T03:05:38.175Z,20.80
2022-11-20T03:06:38.152Z,25.90
2022-11-20T03:07:38.230Z,22.50
2022-11-20T03:08:38.202Z,20.30
2022-11-20T03:09:38.131Z,18.40
2022-11-20T03:10:38.112Z,18.60
2022-11-20T03:11:38.111Z,18.70
2022-11-20T03:12:38.131Z,17.90
2022-11-20T03:13:38.090Z,17.50
2022-11-20T03:14:38.072Z,18.60
2022-11-20T03:15:38.079Z,17.50
2022-11-20T03:16:38.064Z,17.10
2022-11-20T03:17:38.078Z,17.50
2022-11-20T03:18:38.041Z,20.40
2022-11-20T03:19:38.059Z,22.50
2022-11-20T03:20:38.020Z,18.10
2022-11-20T03:21:38.010Z,17.60
2022-11-20T03:22:38.020Z,16.60
2022-11-20T03:23:37.989Z,18.00
2022-11-20T03:24:37.982Z,17.60
2022-11-20T03:25:37.968Z,17.40
2022-11-20T03:26:37.951Z,40.90
2022-11-20T03:27:37.977Z,22.50
2022-11-20T03:28:37.929Z,18.80
2022-11-20T03:29:37.928Z,18.50
2022-11-20T03:30:37.908Z,17.70
2022-11-20T03:31:37.906Z,17.90
2022-11-20T03:32:37.935Z,18.30
2022-11-20T03:33:37.886Z,18.30
2022-11-20T03:34:37.868Z,19.80
2022-11-20T03:35:37.866Z,26.30
2022-11-20T03:36:37.879Z,28.20
2022-11-20T03:37:37.845Z,25.80
2022-11-20T03:38:37.832Z,27.00
2022-11-20T03:39:37.977Z,22.10
2022-11-20T03:40:37.807Z,24.30
2022-11-20T03:41:37.803Z,19.00
2022-11-20T03:42:37.786Z,17.80
2022-11-20T03:43:37.786Z,18.40
2022-11-20T03:44:37.796Z,18.50
2022-11-20T03:45:37.765Z,18.60
2022-11-20T03:46:37.750Z,18.30
2022-11-20T03:47:37.736Z,21.10
2022-11-20T03:48:37.724Z,22.50
2022-11-20T03:49:37.725Z,20.90
2022-11-20T03:50:37.755Z,18.70
2022-11-20T03:51:37.706Z,17.60
2022-11-20T03:52:37.684Z,16.60
2022-11-20T03:53:37.674Z,17.20
2022-11-20T03:54:37.692Z,16.90
2022-11-20T03:55:37.685Z,17.50
2022-11-20T03:56:37.752Z,29.50
2022-11-20T03:57:37.633Z,21.20
2022-11-20T03:58:37.623Z,18.50
2022-11-20T03:59:37.623Z,17.70
2022-11-20T04:00:37.604Z,18.20
2022-11-20T04:01:37.673Z,17.00
2022-11-20T04:02:37.613Z,18.10
2022-11-20T04:03:37.580Z,18.70
2022-11-20T04:04:37.601Z,18.50
2022-11-20T04:05:37.571Z,18.20
2022-11-20T04:06:37.542Z,18.30
2022-11-20T04:07:37.593Z,18.70
2022-11-20T04:08:37.522Z,18.30
2022-11-20T04:09:37.512Z,18.30
2022-11-20T04:10:37.561Z,18.80
2022-11-20T04:11:37.503Z,17.90
2022-11-20T04:12:37.485Z,18.90
2022-11-20T04:13:37.485Z,17.60
2022-11-20T04:14:37.500Z,18.00
2022-11-20T04:15:38.609Z,19.30
2022-11-20T04:16:37.530Z,23.60
2022-11-20T04:17:37.453Z,22.90
2022-11-20T04:18:37.423Z,21.00
2022-11-20T04:19:37.437Z,20.40
2022-11-20T04:20:37.413Z,19.00
2022-11-20T04:21:37.421Z,21.00
2022-11-20T04:22:37.379Z,22.30
2022-11-20T04:23:37.376Z,21.30
2022-11-20T04:24:37.408Z,18.80
2022-11-20T04:25:37.433Z,20.00
2022-11-20T04:26:37.338Z,18.30
2022-11-20T04:27:37.329Z,18.30
2022-11-20T04:28:37.338Z,18.60
2022-11-20T04:29:37.307Z,18.40
2022-11-20T04:30:37.296Z,19.10
2022-11-20T04:31:37.317Z,18.30
2022-11-20T04:32:37.286Z,24.50
2022-11-20T04:33:37.297Z,34.90
2022-11-20T04:34:37.280Z,70.70
2022-11-20T04:35:37.246Z,28.20
2022-11-20T04:36:37.237Z,101.40
2022-11-20T04:37:37.256Z,44.40
2022-11-20T04:38:37.216Z,19.70
2022-11-20T04:39:37.218Z,18.50
2022-11-20T04:40:37.196Z,21.40
2022-11-20T04:41:37.233Z,19.60
2022-11-20T04:42:37.166Z,19.60
2022-11-20T04:43:37.166Z,24.50
2022-11-20T04:44:37.205Z,30.80
2022-11-20T04:45:37.144Z,24.00
2022-11-20T04:46:37.136Z,25.50
2022-11-20T04:47:37.257Z,27.40
2022-11-20T04:48:37.104Z,26.60
2022-11-20T04:49:37.211Z,20.80
2022-11-20T04:50:37.092Z,25.30
2022-11-20T04:51:37.104Z,19.70
2022-11-20T04:52:37.066Z,24.10
2022-11-20T04:53:37.094Z,28.90
2022-11-20T04:54:37.053Z,27.80
2022-11-20T04:55:37.090Z,27.00
2022-11-20T04:56:37.047Z,24.90
2022-11-20T04:57:37.022Z,21.70
2022-11-20T04:58:37.002Z,18.90
2022-11-20T04:59:37.003Z,24.10
2022-11-20T05:00:36.981Z,122.00
2022-11-20T05:01:37.049Z,170.90
2022-11-20T05:02:36.963Z,144.90
2022-11-20T05:03:42.023Z,82.40
2022-11-20T05:04:37.944Z,62.20
2022-11-20T05:05:36.931Z,23.70
2022-11-20T05:06:36.921Z,22.30
2022-11-20T05:07:36.997Z,21.00
2022-11-20T05:08:36.903Z,20.30
2022-11-20T05:09:36.899Z,26.80
2022-11-20T05:10:36.881Z,44.90
2022-11-20T05:11:36.879Z,33.60
2022-11-20T05:12:36.909Z,22.40
2022-11-20T05:13:36.849Z,19.80
2022-11-20T05:14:36.840Z,18.10
2022-11-20T05:15:36.840Z,19.10
2022-11-20T05:16:36.820Z,20.30
2022-11-20T05:17:36.819Z,29.50
2022-11-20T05:18:36.869Z,28.10
2022-11-20T05:19:36.855Z,20.90
2022-11-20T05:20:36.779Z,19.80
2022-11-20T05:21:36.790Z,18.30
2022-11-20T05:22:36.760Z,18.50
2022-11-20T05:23:36.779Z,19.20
2022-11-20T05:24:36.737Z,18.40
2022-11-20T05:25:36.729Z,17.70
2022-11-20T05:26:36.718Z,18.00
2022-11-20T05:27:36.724Z,17.80
2022-11-20T05:28:36.728Z,18.20
2022-11-20T05:29:36.726Z,18.60
2022-11-20T05:30:36.677Z,21.10
2022-11-20T05:31:36.666Z,23.90
2022-11-20T05:32:36.655Z,22.40
2022-11-20T05:33:36.650Z,20.30
2022-11-20T05:34:36.636Z,20.90
2022-11-20T05:35:36.936Z,20.30
2022-11-20T05:36:36.615Z,47.10
2022-11-20T05:37:36.637Z,68.20
2022-11-20T05:38:36.596Z,40.40
2022-11-20T05:39:36.595Z,36.50
2022-11-20T05:40:36.624Z,24.70
2022-11-20T05:41:36.617Z,22.60
2022-11-20T05:42:36.558Z,23.30
2022-11-20T05:43:36.544Z,23.50
2022-11-20T05:44:36.563Z,24.00
2022-11-20T05:45:36.555Z,38.70
2022-11-20T05:46:36.523Z,24.50
2022-11-20T05:47:36.494Z,23.60
2022-11-20T05:48:36.494Z,23.10
2022-11-20T05:49:36.482Z,22.70
2022-11-20T05:50:36.477Z,21.80
2022-11-20T05:51:36.494Z,31.50
2022-11-20T05:52:36.453Z,22.40
2022-11-20T05:53:36.444Z,20.10
2022-11-20T05:54:36.434Z,20.50
2022-11-20T05:55:36.412Z,19.20
2022-11-20T05:56:36.461Z,19.10
2022-11-20T05:57:36.392Z,18.40
2022-11-20T05:58:36.453Z,19.70
2022-11-20T05:59:36.371Z,20.20
2022-11-20T06:00:36.373Z,19.00
2022-11-20T06:01:36.389Z,20.10
2022-11-20T06:02:36.407Z,18.50
2022-11-20T06:03:36.382Z,27.50
2022-11-20T06:04:36.333Z,23.10
2022-11-20T06:05:36.322Z,23.20
2022-11-20T06:06:36.311Z,20.10
2022-11-20T06:07:36.359Z,19.40
2022-11-20T06:08:36.290Z,23.20
2022-11-20T06:09:36.301Z,21.70
2022-11-20T06:10:36.280Z,19.10
2022-11-20T06:11:36.251Z,20.10
2022-11-20T06:12:36.250Z,32.00
2022-11-20T06:13:41.646Z,22.90
2022-11-20T06:14:37.229Z,23.40
2022-11-20T06:15:36.231Z,22.20
2022-11-20T06:16:36.203Z,21.30
2022-11-20T06:17:36.218Z,39.70
2022-11-20T06:18:36.218Z,26.00
2022-11-20T06:19:36.170Z,37.60
2022-11-20T06:20:41.821Z,21.10
2022-11-20T06:21:37.145Z,26.20
2022-11-20T06:22:36.138Z,34.80
2022-11-20T06:23:36.168Z,26.60
2022-11-20T06:24:36.157Z,20.30
2022-11-20T06:25:36.098Z,20.60
2022-11-20T06:26:36.095Z,19.70
2022-11-20T06:27:36.096Z,19.20
2022-11-20T06:28:36.079Z,19.70
2022-11-20T06:29:36.130Z,19.40
2022-11-20T06:30:36.095Z,20.20
2022-11-20T06:31:36.064Z,19.90
2022-11-20T06:32:36.039Z,21.30
2022-11-20T06:33:36.026Z,20.00
2022-11-20T06:34:36.056Z,21.80
2022-11-20T06:35:35.996Z,23.10
2022-11-20T06:36:36.025Z,26.80
2022-11-20T06:37:35.975Z,28.90
2022-11-20T06:38:35.973Z,26.70
2022-11-20T06:39:35.958Z,21.80
2022-11-20T06:40:35.963Z,19.40
2022-11-20T06:41:35.994Z,19.50
2022-11-20T06:42:35.934Z,17.80
2022-11-20T06:43:35.915Z,24.40
2022-11-20T06:44:35.913Z,19.70
2022-11-20T06:45:35.933Z,20.00
2022-11-20T06:46:35.893Z,19.20
2022-11-20T06:47:35.880Z,19.60
2022-11-20T06:48:35.871Z,19.50
2022-11-20T06:49:35.854Z,42.40
2022-11-20T06:50:35.851Z,25.90
2022-11-20T06:51:36.173Z,20.70
2022-11-20T06:52:39.566Z,22.20
2022-11-20T06:53:36.828Z,22.40
2022-11-20T06:54:36.143Z,20.80
2022-11-20T06:55:35.791Z,21.80
2022-11-20T06:56:35.819Z,22.80
2022-11-20T06:57:35.773Z,22.50
2022-11-20T06:58:35.762Z,22.40
2022-11-20T06:59:35.761Z,23.60
2022-11-20T07:00:35.821Z,26.40
2022-11-20T07:01:35.731Z,38.20
2022-11-20T07:02:35.901Z,26.50
2022-11-20T07:03:35.742Z,48.40
2022-11-20T07:04:35.750Z,27.90
2022-11-20T07:05:35.691Z,27.60
2022-11-20T07:06:35.689Z,33.30
2022-11-20T07:07:35.690Z,26.10
2022-11-20T07:08:35.660Z,22.80
2022-11-20T07:09:35.780Z,25.40
2022-11-20T07:10:35.648Z,22.70
2022-11-20T07:11:35.637Z,22.10
2022-11-20T07:12:35.618Z,21.50
2022-11-20T07:13:35.609Z,23.80
2022-11-20T07:14:35.630Z,26.40
2022-11-20T07:15:35.597Z,116.80
2022-11-20T07:16:35.582Z,27.80
2022-11-20T07:17:35.568Z,21.30
2022-11-20T07:18:35.558Z,22.40
2022-11-20T07:19:35.552Z,24.60
2022-11-20T07:20:35.568Z,25.90
2022-11-20T07:21:35.526Z,24.10
2022-11-20T07:22:35.517Z,22.10
2022-11-20T07:23:35.506Z,24.70
2022-11-20T07:24:35.497Z,20.80
2022-11-20T07:25:38.579Z,22.60
2022-11-20T07:26:35.476Z,23.30
2022-11-20T07:27:35.456Z,29.00
2022-11-20T07:28:35.457Z,24.20
2022-11-20T07:29:35.446Z,21.60
2022-11-20T07:30:35.497Z,30.30
2022-11-20T07:31:35.526Z,27.80
2022-11-20T07:32:35.511Z,31.10
2022-11-20T07:33:35.404Z,27.10
2022-11-20T07:34:35.397Z,27.60
2022-11-20T07:35:35.384Z,25.00
2022-11-20T07:36:35.584Z,24.10
2022-11-20T07:37:35.364Z,25.20
2022-11-20T07:38:35.355Z,29.00
2022-11-20T07:39:35.377Z,24.00
2022-11-20T07:40:35.335Z,26.10
2022-11-20T07:41:35.324Z,28.20
2022-11-20T07:42:35.341Z,23.00
2022-11-20T07:43:40.840Z,25.00
2022-11-20T07:44:36.344Z,27.50
2022-11-20T07:45:35.274Z,31.30
2022-11-20T07:46:35.274Z,24.40
2022-11-20T07:47:35.264Z,23.90
2022-11-20T07:48:35.253Z,27.00
2022-11-20T07:49:35.245Z,23.80
2022-11-20T07:50:35.263Z,23.40
2022-11-20T07:51:35.222Z,22.80
2022-11-20T07:52:35.211Z,23.80
2022-11-20T07:53:35.197Z,27.60
2022-11-20T07:54:35.193Z,27.00
2022-11-20T07:55:35.222Z,35.50
2022-11-20T07:56:35.172Z,30.60
2022-11-20T07:57:35.159Z,28.90
2022-11-20T07:58:35.200Z,30.30
2022-11-20T07:59:35.140Z,28.00
2022-11-20T08:00:35.175Z,28.40
2022-11-20T08:01:35.123Z,27.60
2022-11-20T08:02:35.729Z,25.40
2022-11-20T08:03:35.090Z,27.10
2022-11-20T08:04:35.211Z,24.90
2022-11-20T08:05:35.093Z,26.50
2022-11-20T08:06:35.070Z,28.00
2022-11-20T08:07:36.814Z,23.30
2022-11-20T08:08:38.921Z,23.60
2022-11-20T08:09:36.068Z,21.60
2022-11-20T08:10:35.034Z,23.00
2022-11-20T08:11:35.019Z,22.10
2022-11-20T08:12:35.000Z,22.90
2022-11-20T08:13:34.991Z,21.70
2022-11-20T08:14:35.027Z,22.10
2022-11-20T08:15:34.972Z,23.30
2022-11-20T08:16:34.958Z,22.30
2022-11-20T08:17:34.947Z,22.90
2022-11-20T08:18:34.968Z,22.70
2022-11-20T08:19:34.938Z,22.90
2022-11-20T08:20:34.918Z,22.60
2022-11-20T08:21:38.230Z,23.00
2022-11-20T08:22:34.947Z,22.60
2022-11-20T08:23:34.908Z,23.40
2022-11-20T08:24:34.876Z,23.20
2022-11-20T08:25:34.870Z,22.30
2022-11-20T08:26:34.869Z,24.10
2022-11-20T08:27:34.895Z,22.80
2022-11-20T08:28:34.847Z,24.00
2022-11-20T08:29:34.907Z,23.50
2022-11-20T08:30:34.874Z,23.20
2022-11-20T08:31:34.859Z,24.60
2022-11-20T08:32:34.882Z,25.50
2022-11-20T08:33:34.844Z,25.30
2022-11-20T08:34:34.775Z,25.30
2022-11-20T08:35:34.765Z,25.70
2022-11-20T08:36:34.755Z,26.50
2022-11-20T08:37:34.772Z,26.00
2022-11-20T08:38:43.583Z,26.20
2022-11-20T08:39:34.726Z,26.40
2022-11-20T08:40:34.715Z,26.20
2022-11-20T08:41:34.695Z,25.60
2022-11-20T08:42:34.694Z,25.50
2022-11-20T08:43:34.753Z,25.40
2022-11-20T08:44:34.698Z,24.40
2022-11-20T08:45:35.556Z,24.20
2022-11-20T08:46:34.645Z,22.80
2022-11-20T08:47:34.634Z,22.70
2022-11-20T08:48:34.625Z,23.40
2022-11-20T08:49:34.666Z,23.10
2022-11-20T08:50:34.604Z,24.00
2022-11-20T08:51:34.622Z,23.60
2022-11-20T08:52:39.716Z,22.90
2022-11-20T08:53:35.603Z,22.50
2022-11-20T08:54:34.568Z,24.10
2022-11-20T08:55:34.544Z,24.10
2022-11-20T08:56:34.541Z,23.20
2022-11-20T08:57:34.922Z,23.80
2022-11-20T08:58:54.923Z,28.40
2022-11-20T09:00:05.673Z,24.80
2022-11-20T09:00:35.644Z,23.20
2022-11-20T09:01:34.482Z,22.90
2022-11-20T09:02:34.472Z,21.90
2022-11-20T09:03:34.481Z,20.90
2022-11-20T09:04:34.463Z,20.60
2022-11-20T09:05:34.471Z,19.30
2022-11-20T09:06:34.452Z,21.10
2022-11-20T09:07:34.549Z,21.70
2022-11-20T09:08:34.414Z,21.40
2022-11-20T09:09:34.402Z,21.50
2022-11-20T09:10:34.390Z,20.70
2022-11-20T09:11:34.381Z,21.10
2022-11-20T09:12:34.370Z,21.50
2022-11-20T09:13:34.530Z,22.00
2022-11-20T09:14:34.354Z,22.90
2022-11-20T09:15:34.342Z,21.50
2022-11-20T09:16:34.331Z,20.90
2022-11-20T09:17:34.351Z,21.60
2022-11-20T09:18:34.348Z,22.10
2022-11-20T09:19:40.731Z,21.60
2022-11-20T09:20:35.303Z,22.90
2022-11-20T09:21:34.281Z,22.60
2022-11-20T09:22:34.270Z,22.10
2022-11-20T09:23:34.257Z,21.70
2022-11-20T09:24:34.249Z,20.80
2022-11-20T09:25:34.269Z,20.80
2022-11-20T09:26:34.229Z,21.10
2022-11-20T09:27:34.261Z,22.70
2022-11-20T09:28:34.227Z,22.10
2022-11-20T09:29:34.220Z,22.20
2022-11-20T09:30:34.186Z,22.80
2022-11-20T09:31:34.175Z,21.80
2022-11-20T09:32:34.168Z,23.30
2022-11-20T09:33:34.155Z,22.20
2022-11-20T09:34:34.176Z,21.90
2022-11-20T09:35:34.137Z,22.20
2022-11-20T09:36:34.143Z,22.40
2022-11-20T09:37:35.810Z,22.40
2022-11-20T09:38:34.373Z,22.70
2022-11-20T09:39:34.095Z,22.80
2022-11-20T09:40:34.084Z,21.80
2022-11-20T09:41:34.075Z,22.80
2022-11-20T09:42:34.066Z,22.20
2022-11-20T09:43:35.735Z,22.30
2022-11-20T09:44:34.122Z,22.30
2022-11-20T09:45:34.035Z,23.80
2022-11-20T09:46:34.025Z,23.10
2022-11-20T09:47:34.004Z,23.30
2022-11-20T09:48:34.052Z,24.00
2022-11-20T09:49:34.628Z,24.70
2022-11-20T09:50:34.004Z,24.40
2022-11-20T09:51:33.973Z,24.90
2022-11-20T09:52:33.954Z,24.70
2022-11-20T09:53:33.945Z,24.90
2022-11-20T09:54:33.964Z,24.40
2022-11-20T09:55:33.941Z,24.30
2022-11-20T09:56:33.916Z,23.60
2022-11-20T09:57:33.921Z,24.10
2022-11-20T09:58:33.893Z,24.80
2022-11-20T09:59:33.883Z,27.30
2022-11-20T10:00:33.967Z,25.20
2022-11-20T10:01:33.861Z,23.40
2022-11-20T10:02:33.842Z,24.30
2022-11-20T10:03:33.832Z,23.10
2022-11-20T10:04:36.885Z,23.30
2022-11-20T10:05:34.885Z,21.60
2022-11-20T10:06:33.846Z,22.30
2022-11-20T10:07:33.941Z,22.10
2022-11-20T10:08:33.802Z,22.90
2022-11-20T10:09:33.789Z,21.70
2022-11-20T10:10:33.774Z,22.40
2022-11-20T10:11:33.750Z,22.10
2022-11-20T10:12:33.761Z,23.40
2022-11-20T10:13:33.729Z,22.50
2022-11-20T10:14:33.740Z,22.90
2022-11-20T10:15:33.704Z,23.10
2022-11-20T10:16:39.509Z,23.70
2022-11-20T10:17:34.679Z,23.60
2022-11-20T10:18:33.672Z,25.00
2022-11-20T10:19:33.902Z,25.50
2022-11-20T10:20:33.650Z,26.00
2022-11-20T10:21:33.646Z,25.70
2022-11-20T10:22:33.628Z,25.30
2022-11-20T10:23:33.619Z,26.10
2022-11-20T10:24:33.606Z,32.00
2022-11-20T10:25:33.629Z,28.80
2022-11-20T10:26:33.588Z,27.20
2022-11-20T10:27:33.600Z,25.80
2022-11-20T10:28:33.569Z,25.00
2022-11-20T10:29:33.617Z,24.40
2022-11-20T10:30:33.558Z,25.40
2022-11-20T10:31:33.540Z,24.50
2022-11-20T10:32:33.518Z,23.10
2022-11-20T10:33:50.109Z,23.80
2022-11-20T10:34:34.498Z,23.20
2022-11-20T10:35:33.496Z,22.10
2022-11-20T10:36:33.476Z,23.20
2022-11-20T10:37:33.487Z,23.30
2022-11-20T10:38:33.457Z,23.10
2022-11-20T10:39:33.508Z,23.50
2022-11-20T10:40:33.438Z,23.90
2022-11-20T10:41:35.845Z,23.10
2022-11-20T10:42:33.415Z,28.50
2022-11-20T10:43:33.420Z,29.00
2022-11-20T10:44:33.478Z,24.90
2022-11-20T10:45:33.390Z,26.50
2022-11-20T10:46:33.378Z,25.50
2022-11-20T10:47:33.407Z,24.30
2022-11-20T10:48:33.356Z,24.20
2022-11-20T10:49:33.347Z,24.70
2022-11-20T10:50:33.356Z,25.20
2022-11-20T10:51:33.325Z,25.60
2022-11-20T10:52:33.305Z,24.70
2022-11-20T10:53:33.304Z,25.00
2022-11-20T10:54:33.290Z,26.80
2022-11-20T10:55:33.305Z,28.40
2022-11-20T10:56:33.264Z,34.90
2022-11-20T10:57:33.265Z,37.90
2022-11-20T10:58:33.294Z,27.50
2022-11-20T10:59:33.265Z,24.40
2022-11-20T11:00:33.237Z,23.90
2022-11-20T11:01:33.299Z,23.40
2022-11-20T11:02:33.205Z,23.20
2022-11-20T11:03:33.205Z,22.80
2022-11-20T11:04:33.187Z,22.80
2022-11-20T11:05:33.184Z,22.10
2022-11-20T11:06:33.228Z,20.40
2022-11-20T11:07:33.258Z,20.40
2022-11-20T11:08:33.143Z,20.20
2022-11-20T11:09:33.133Z,18.60
2022-11-20T11:10:33.123Z,18.70
2022-11-20T11:11:33.123Z,17.80
2022-11-20T11:12:33.143Z,17.50
2022-11-20T11:13:33.108Z,17.80
2022-11-20T11:14:33.082Z,18.50
2022-11-20T11:15:33.072Z,19.30
2022-11-20T11:16:33.095Z,19.80
2022-11-20T11:17:33.056Z,19.20
2022-11-20T11:18:33.052Z,19.60
2022-11-20T11:19:33.041Z,19.60
2022-11-20T11:20:33.011Z,19.60
2022-11-20T11:21:33.014Z,19.10
2022-11-20T11:22:33.036Z,18.40
2022-11-20T11:23:32.992Z,18.20
2022-11-20T11:24:48.275Z,18.70
2022-11-20T11:25:33.966Z,19.60
2022-11-20T11:26:32.991Z,19.60
2022-11-20T11:27:33.013Z,19.70
2022-11-20T11:28:32.930Z,20.50
2022-11-20T11:29:32.933Z,22.40
2022-11-20T11:30:32.923Z,22.10
2022-11-20T11:31:32.910Z,19.90
2022-11-20T11:32:32.971Z,20.40
2022-11-20T11:33:32.891Z,19.70
2022-11-20T11:34:32.881Z,20.10
2022-11-20T11:35:32.871Z,19.50
2022-11-20T11:36:32.859Z,19.50
2022-11-20T11:37:32.840Z,19.20
2022-11-20T11:38:32.871Z,22.60
2022-11-20T11:39:32.828Z,21.00
2022-11-20T11:40:32.808Z,22.10
2022-11-20T11:41:32.838Z,21.50
2022-11-20T11:42:32.819Z,20.80
2022-11-20T11:43:36.734Z,19.80
2022-11-20T11:44:34.006Z,19.20
2022-11-20T11:45:32.759Z,17.70
2022-11-20T11:46:32.764Z,20.00
2022-11-20T11:47:32.738Z,20.60
2022-11-20T11:48:32.728Z,20.90
2022-11-20T11:49:32.721Z,22.30
2022-11-20T11:50:32.733Z,19.90
2022-11-20T11:51:32.689Z,19.40
2022-11-20T11:52:32.689Z,25.90
2022-11-20T11:53:32.679Z,26.30
2022-11-20T11:54:32.669Z,24.60
2022-11-20T11:55:32.686Z,22.20
2022-11-20T11:56:32.646Z,20.80
2022-11-20T11:57:32.638Z,21.40
2022-11-20T11:58:32.620Z,20.20
2022-11-20T11:59:32.618Z,21.90
2022-11-20T12:00:32.676Z,21.20
2022-11-20T12:01:33.046Z,21.40
2022-11-20T12:02:32.633Z,21.10
2022-11-20T12:03:32.595Z,29.50
2022-11-20T12:04:32.556Z,60.00
2022-11-20T12:05:32.548Z,41.00
2022-11-20T12:06:32.580Z,28.10
2022-11-20T12:07:46.059Z,22.50
2022-11-20T12:08:33.569Z,20.70
2022-11-20T12:09:32.506Z,20.00
2022-11-20T12:10:32.545Z,19.50
2022-11-20T12:11:32.516Z,22.60
2022-11-20T12:12:32.475Z,20.50
2022-11-20T12:13:32.473Z,21.50
2022-11-20T12:14:32.457Z,22.00
2022-11-20T12:15:32.480Z,21.30
2022-11-20T12:16:32.455Z,21.20
2022-11-20T12:17:32.431Z,20.90
2022-11-20T12:18:32.414Z,21.20
2022-11-20T12:19:32.445Z,20.30
2022-11-20T12:20:32.386Z,20.30
2022-11-20T12:21:32.425Z,20.60
2022-11-20T12:22:32.405Z,19.50
2022-11-20T12:23:32.355Z,19.00
2022-11-20T12:24:32.366Z,17.00
2022-11-20T12:25:32.344Z,17.90
2022-11-20T12:26:32.346Z,18.40
2022-11-20T12:27:32.322Z,18.30
2022-11-20T12:28:32.354Z,17.10
2022-11-20T12:29:32.293Z,17.30
2022-11-20T12:30:32.273Z,17.50
2022-11-20T12:31:32.271Z,17.60
2022-11-20T12:32:32.252Z,17.50
2022-11-20T12:33:32.341Z,17.50
2022-11-20T12:34:32.235Z,17.10
2022-11-20T12:35:32.232Z,16.70
2022-11-20T12:36:32.212Z,17.60
2022-11-20T12:37:32.223Z,17.80
2022-11-20T12:38:32.195Z,23.00
2022-11-20T12:39:32.191Z,22.80
2022-11-20T12:40:32.174Z,20.60
2022-11-20T12:41:32.162Z,21.10
2022-11-20T12:42:32.202Z,21.60
2022-11-20T12:43:32.155Z,20.40
2022-11-20T12:44:32.144Z,18.10
2022-11-20T12:45:32.132Z,17.30
2022-11-20T12:46:32.120Z,18.80
2022-11-20T12:47:32.153Z,18.30
2022-11-20T12:48:32.091Z,19.20
2022-11-20T12:49:32.123Z,18.70
2022-11-20T12:50:35.064Z,19.20
2022-11-20T12:51:32.072Z,17.70
2022-11-20T12:52:32.052Z,17.00
2022-11-20T12:53:32.042Z,16.90